Time;durP1;ratioP1;P1;durP2;ratioP2;P2;SDS_P1;SDS_P2;PMS_P1;PMS_P2;Temp;Humidity;BMP_temperature;BMP_pressure;BME280_temperature;BME280_humidity;BME280_pressure;Samples;Min_cycle;Max_cycle;Signal;HPM_P1;HPM_P2
2022/05/08 00:01:01;;;;;;;13.02;11.85;;;12.20;99.90;13.00;97197.00;;;;5085807;28;20394;-68
2022/05/08 00:03:49;;;;;;;13.20;12.00;;;12.00;99.90;13.00;97189.00;;;;5090308;28;20444;-68
2022/05/08 00:06:38;;;;;;;13.75;12.45;;;12.20;99.90;13.00;97202.00;;;;5083203;28;20406;-68
2022/05/08 00:09:27;;;;;;;12.50;11.20;;;12.20;99.90;12.70;97197.00;;;;5086146;28;20415;-68
2022/05/08 00:12:17;;;;;;;12.98;11.77;;;12.10;99.90;12.60;97199.00;;;;5094882;28;20400;-69
2022/05/08 00:15:07;;;;;;;14.05;12.65;;;11.90;99.90;12.70;97203.00;;;;5090020;28;20393;-69
2022/05/08 00:17:57;;;;;;;15.13;12.98;;;11.90;99.90;12.70;97206.00;;;;5086129;28;20394;-69
2022/05/08 00:20:46;;;;;;;14.48;13.07;;;12.20;99.90;12.90;97203.00;;;;5083343;28;21128;-68
2022/05/08 00:23:35;;;;;;;13.50;12.27;;;11.90;99.90;12.90;97190.00;;;;5084173;28;20388;-68
2022/05/08 00:26:23;;;;;;;13.50;12.20;;;12.00;99.90;12.90;97192.00;;;;5088654;28;20412;-69
2022/05/08 00:29:12;;;;;;;13.27;11.98;;;12.00;99.90;12.90;97185.00;;;;5082295;28;20386;-69
2022/05/08 00:32:01;;;;;;;13.50;12.18;;;11.90;99.90;13.00;97187.00;;;;5081086;28;20905;-69
2022/05/08 00:34:51;;;;;;;12.50;11.20;;;12.10;99.90;13.00;97181.00;;;;5092710;28;20487;-68
2022/05/08 00:37:40;;;;;;;13.70;12.45;;;12.10;99.90;13.00;97185.00;;;;5087823;28;20962;-69
2022/05/08 00:40:32;;;;;;;12.93;11.63;;;12.20;99.90;12.90;97169.00;;;;5091042;28;20390;-69
2022/05/08 00:43:32;;;;;;;13.18;11.88;;;12.00;99.90;12.90;97170.00;;;;5086217;28;20392;-68
2022/05/08 00:46:21;;;;;;;14.20;12.90;;;12.00;99.90;12.90;97168.00;;;;5087074;28;20453;-68
2022/05/08 00:49:09;;;;;;;12.95;11.75;;;12.20;99.90;12.80;97168.00;;;;5090615;28;20405;-68
2022/05/08 00:52:00;;;;;;;14.77;12.77;;;12.20;99.90;12.90;97173.00;;;;5088430;28;20742;-68
2022/05/08 00:54:49;;;;;;;12.73;11.45;;;11.90;99.90;12.90;97175.00;;;;5076712;28;20395;-69
2022/05/08 00:57:42;;;;;;;13.82;12.52;;;12.30;99.90;13.00;97166.00;;;;5069144;28;20410;-68
2022/05/08 01:00:30;;;;;;;13.80;12.50;;;12.20;99.90;13.00;97183.00;;;;5072259;28;20379;-68
2022/05/08 01:03:19;;;;;;;12.70;11.50;;;12.20;99.90;12.90;97186.00;;;;5069918;28;20748;-68
2022/05/08 01:06:10;;;;;;;13.65;12.38;;;12.30;99.90;12.90;97189.00;;;;5067600;28;20756;-68
2022/05/08 01:09:00;;;;;;;13.68;12.45;;;12.30;99.90;12.90;97183.00;;;;5070332;28;20400;-68
2022/05/08 01:11:49;;;;;;;13.20;12.00;;;12.10;99.90;13.00;97187.00;;;;5070221;28;20412;-68
2022/05/08 01:14:38;;;;;;;13.40;12.13;;;12.00;99.90;12.90;97178.00;;;;5075081;28;20395;-68
2022/05/08 01:17:27;;;;;;;13.65;12.40;;;12.00;99.90;12.90;97183.00;;;;5060754;28;20395;-68
2022/05/08 01:20:16;;;;;;;12.93;11.82;;;12.00;99.90;12.90;97179.00;;;;5066860;28;20392;-68
2022/05/08 01:23:07;;;;;;;12.90;11.70;;;12.10;99.90;13.00;97177.00;;;;5068383;28;20380;-68
2022/05/08 01:25:57;;;;;;;12.45;11.25;;;12.10;99.90;13.00;97190.00;;;;5068766;28;20419;-68
2022/05/08 01:28:46;;;;;;;14.02;12.57;;;11.80;99.90;13.10;97191.00;;;;5074451;28;20388;-68
2022/05/08 01:31:35;;;;;;;14.45;13.10;;;12.00;99.90;13.10;97194.00;;;;5068635;28;20400;-68
2022/05/08 01:34:24;;;;;;;12.95;11.75;;;12.10;99.90;13.00;97196.00;;;;5069638;28;20394;-68
2022/05/08 01:37:13;;;;;;;13.43;11.82;;;12.10;99.90;13.00;97191.00;;;;5073510;28;20395;-68
2022/05/08 01:40:03;;;;;;;13.20;12.00;;;12.10;99.90;13.00;97186.00;;;;5060338;28;20391;-68
2022/05/08 01:42:52;;;;;;;13.80;12.40;;;12.10;99.90;13.00;97191.00;;;;5067077;28;20398;-68
2022/05/08 01:45:41;;;;;;;13.57;12.18;;;12.10;99.90;13.00;97201.00;;;;5067849;28;20403;-68
2022/05/08 01:48:30;;;;;;;13.70;12.45;;;12.10;99.90;12.90;97196.00;;;;5069060;28;20388;-68
2022/05/08 01:51:20;;;;;;;13.20;11.90;;;12.10;99.90;13.00;97198.00;;;;5068612;28;20384;-68
2022/05/08 01:54:09;;;;;;;12.52;11.43;;;11.90;99.90;12.90;97194.00;;;;5098771;28;20403;-69
2022/05/08 01:56:59;;;;;;;12.57;11.38;;;12.00;99.90;12.90;97194.00;;;;5082671;28;20401;-68
2022/05/08 01:59:47;;;;;;;12.10;10.98;;;12.00;99.90;13.00;97199.00;;;;5082160;28;20885;-68
2022/05/08 02:02:37;;;;;;;13.18;11.93;;;11.80;99.90;13.00;97202.00;;;;5078529;28;20394;-68
2022/05/08 02:05:28;;;;;;;13.02;11.75;;;11.80;99.90;12.90;97201.00;;;;5085425;28;20389;-68
2022/05/08 02:08:17;;;;;;;13.48;12.25;;;12.00;99.90;12.80;97201.00;;;;5076474;28;20390;-68
2022/05/08 02:11:06;;;;;;;13.30;12.00;;;11.80;99.90;12.70;97204.00;;;;5090376;28;20924;-68
2022/05/08 02:13:56;;;;;;;13.18;11.95;;;12.00;99.90;12.60;97198.00;;;;5092910;28;20390;-68
2022/05/08 02:16:45;;;;;;;13.50;12.30;;;11.70;99.90;12.50;97198.00;;;;5100757;28;20404;-68
2022/05/08 02:19:34;;;;;;;14.63;13.30;;;12.00;99.90;12.50;97197.00;;;;5080254;28;20388;-68
2022/05/08 02:22:23;;;;;;;14.75;13.35;;;11.80;99.90;12.60;97194.00;;;;5087405;28;20769;-68
2022/05/08 02:25:11;;;;;;;14.50;13.20;;;11.50;99.90;12.50;97195.00;;;;5091477;28;20401;-68
2022/05/08 02:28:01;;;;;;;15.30;13.73;;;11.70;99.90;12.60;97199.00;;;;5091711;28;20405;-68
2022/05/08 02:30:51;;;;;;;14.60;13.15;;;11.60;99.90;12.60;97199.00;;;;5091503;28;20382;-68
2022/05/08 02:33:40;;;;;;;15.38;13.88;;;12.00;99.90;12.50;97195.00;;;;5091826;28;20405;-69
2022/05/08 02:36:28;;;;;;;13.63;12.38;;;11.80;99.90;12.60;97201.00;;;;5104799;28;20929;-68
2022/05/08 02:39:17;;;;;;;13.73;12.43;;;11.50;99.90;12.60;97199.00;;;;5084840;28;20401;-68
2022/05/08 02:42:06;;;;;;;14.10;12.80;;;11.70;99.90;12.50;97193.00;;;;5090460;28;20392;-68
2022/05/08 02:44:55;;;;;;;14.00;12.55;;;11.60;99.90;12.50;97197.00;;;;5087991;28;20401;-68
2022/05/08 02:47:45;;;;;;;13.45;12.00;;;11.50;99.90;12.60;97197.00;;;;5089680;28;20406;-68
2022/05/08 02:50:34;;;;;;;13.52;12.25;;;11.70;99.90;12.70;97191.00;;;;5086698;28;20387;-68
2022/05/08 02:53:23;;;;;;;13.00;11.80;;;11.60;99.90;12.80;97199.00;;;;5087123;22;20435;-92
2022/05/08 02:59:18;;;;;;;13.00;11.88;;;11.80;99.90;12.80;97195.00;;;;5073185;28;20392;-91
2022/05/08 03:02:07;;;;;;;12.55;11.35;;;12.00;99.90;12.80;97192.00;;;;5074392;28;20406;-90
2022/05/08 03:04:57;;;;;;;11.77;10.75;;;11.70;99.90;12.60;97194.00;;;;5077015;28;20412;-90
2022/05/08 03:07:46;;;;;;;12.27;11.07;;;11.50;99.90;12.50;97190.00;;;;5073776;28;20407;-90
2022/05/08 03:13:40;;;;;;;12.73;11.55;;;11.80;99.90;12.30;97191.00;;;;5082700;28;20407;-91
2022/05/08 03:16:29;;;;;;;14.25;12.75;;;11.60;99.90;12.40;97195.00;;;;5075427;28;20419;-91
2022/05/08 03:19:21;;;;;;;14.00;12.68;;;11.80;99.90;12.60;97193.00;;;;5067869;28;20428;-90
2022/05/08 03:22:11;;;;;;;13.68;12.48;;;11.60;99.90;12.60;97199.00;;;;5065668;28;20376;-91
2022/05/08 03:25:00;;;;;;;14.40;11.53;;;11.80;99.90;12.70;97199.00;;;;5070523;28;20384;-90
2022/05/08 03:27:49;;;;;;;12.15;11.02;;;11.90;99.90;12.60;97199.00;;;;5070870;28;20408;-91
2022/05/08 03:30:38;;;;;;;11.47;10.47;;;11.90;99.90;12.50;97198.00;;;;5079577;28;20399;-90
2022/05/08 03:33:27;;;;;;;12.85;11.45;;;11.60;99.90;12.50;97199.00;;;;5071622;28;20400;-91
2022/05/08 03:36:16;;;;;;;12.73;11.52;;;11.90;99.90;12.50;97196.00;;;;5069493;28;20468;-90
2022/05/08 03:39:06;;;;;;;12.10;11.05;;;11.80;99.90;12.40;97203.00;;;;5069089;28;20398;-90
2022/05/08 03:41:55;;;;;;;12.80;11.60;;;11.80;99.90;12.20;97204.00;;;;5072510;28;20388;-93
2022/05/08 03:44:44;;;;;;;12.90;11.57;;;11.70;99.90;12.30;97201.00;;;;5072850;28;20388;-90
2022/05/08 03:47:32;;;;;;;12.73;11.52;;;11.70;99.90;12.60;97207.00;;;;5070932;28;20400;-89
2022/05/08 03:50:22;;;;;;;12.63;11.52;;;11.60;99.90;12.70;97213.00;;;;5071719;28;20406;-90
2022/05/08 03:53:11;;;;;;;13.63;12.32;;;11.70;99.90;12.70;97212.00;;;;5070291;28;20403;-91
2022/05/08 03:56:02;;;;;;;13.35;11.95;;;11.70;99.90;12.70;97214.00;;;;5069631;28;20399;-91
2022/05/08 03:58:50;;;;;;;13.93;12.57;;;11.60;99.90;12.50;97212.00;;;;5066365;28;20394;-91
2022/05/08 04:01:39;;;;;;;12.70;11.50;;;11.80;99.90;12.50;97216.00;;;;5064826;28;20398;-91
2022/05/08 04:04:28;;;;;;;12.18;11.18;;;12.00;99.90;12.30;97211.00;;;;5070405;28;20396;-91
2022/05/08 04:07:17;;;;;;;13.65;12.45;;;11.60;99.90;12.30;97209.00;;;;5063781;28;20414;-91
2022/05/08 04:10:08;;;;;;;12.43;11.20;;;11.50;99.90;12.50;97216.00;;;;5072671;28;20192;-91
2022/05/08 04:12:58;;;;;;;11.43;10.30;;;11.50;99.90;12.50;97212.00;;;;5072335;28;20203;-91
2022/05/08 04:18:54;;;;;;;11.70;10.50;;;11.60;99.90;12.60;97218.00;;;;5073964;28;20210;-91
2022/05/08 04:21:43;;;;;;;12.00;10.67;;;11.70;99.90;12.60;97222.00;;;;5072328;28;20208;-92
2022/05/08 04:24:31;;;;;;;12.27;11.00;;;11.50;99.90;12.50;97226.00;;;;5070585;28;20196;-91
2022/05/08 04:27:20;;;;;;;11.90;10.70;;;11.50;99.90;12.30;97226.00;;;;5073599;28;20727;-91
2022/05/08 04:30:11;;;;;;;13.30;11.90;;;11.50;99.90;12.50;97227.00;;;;5072130;28;20200;-92
2022/05/08 04:33:00;;;;;;;14.20;12.80;;;11.50;99.90;12.60;97228.00;;;;5069706;28;20200;-91
2022/05/08 04:35:49;;;;;;;12.13;10.90;;;11.50;99.90;12.60;97232.00;;;;5069278;28;20219;-91
2022/05/08 04:38:37;;;;;;;12.43;11.20;;;11.60;99.90;12.50;97234.00;;;;5067482;28;20204;-91
2022/05/08 04:41:27;;;;;;;14.07;11.83;;;11.60;99.90;12.50;97227.00;;;;5075990;28;20566;-91
2022/05/08 04:44:16;;;;;;;13.57;11.77;;;11.60;99.90;12.50;97232.00;;;;5081495;28;20196;-91
2022/05/08 04:47:06;;;;;;;13.73;12.33;;;11.60;99.90;12.50;97239.00;;;;5078984;28;20237;-92
2022/05/08 04:49:55;;;;;;;14.03;12.20;;;11.60;99.90;12.60;97235.00;;;;5078387;28;20458;-92
2022/05/08 04:52:44;;;;;;;15.23;12.17;;;11.60;99.90;12.70;97232.00;;;;5091714;28;20230;-92
2022/05/08 04:55:33;;;;;;;13.37;11.97;;;11.70;99.90;12.60;97239.00;;;;5079012;28;20227;-92
2022/05/08 04:58:22;;;;;;;16.40;12.80;;;11.70;99.90;12.80;97243.00;;;;5070153;28;20211;-90
2022/05/08 05:01:11;;;;;;;15.67;11.60;;;11.70;99.90;12.80;97245.00;;;;5071356;28;20276;-92
2022/05/08 05:04:01;;;;;;;13.30;12.00;;;11.80;99.90;12.60;97244.00;;;;5070624;28;20214;-91
2022/05/08 05:06:50;;;;;;;13.23;11.83;;;11.80;99.90;12.70;97252.00;;;;5070546;28;20217;-90
2022/05/08 05:09:39;;;;;;;14.97;11.93;;;11.80;99.90;12.80;97254.00;;;;5073450;28;20203;-91
2022/05/08 05:12:28;;;;;;;13.07;11.67;;;11.80;99.90;12.80;97249.00;;;;5075985;28;20505;-91
2022/05/08 05:15:18;;;;;;;14.07;12.57;;;11.80;99.90;12.80;97253.00;;;;5074543;28;20200;-91
2022/05/08 05:18:07;;;;;;;14.17;12.67;;;11.80;99.90;12.90;97253.00;;;;5074490;28;20215;-91
2022/05/08 05:20:58;;;;;;;16.43;14.50;;;11.80;99.90;12.90;97248.00;;;;5064371;28;20196;-91
2022/05/08 05:23:47;;;;;;;14.20;12.77;;;11.80;99.90;12.80;97247.00;;;;5073293;28;20227;-91
2022/05/08 05:26:35;;;;;;;18.97;16.97;;;11.80;99.90;12.80;97256.00;;;;5077195;28;20597;-91
2022/05/08 05:29:24;;;;;;;16.80;15.20;;;11.90;99.90;12.60;97260.00;;;;5078810;28;20188;-91
2022/05/08 05:32:13;;;;;;;14.33;12.90;;;11.80;99.90;12.80;97257.00;;;;5066269;28;20208;-91
2022/05/08 05:35:02;;;;;;;12.90;11.57;;;11.80;99.90;12.90;97263.00;;;;5069215;28;20207;-91
2022/05/08 05:37:52;;;;;;;13.47;12.07;;;11.80;99.90;13.10;97269.00;;;;5069526;28;20602;-91
2022/05/08 05:40:41;;;;;;;14.90;13.37;;;11.90;99.90;13.10;97271.00;;;;5063092;28;20200;-90
2022/05/08 05:43:30;;;;;;;14.97;13.53;;;11.90;99.90;13.10;97266.00;;;;5071856;28;20192;-89
2022/05/08 05:49:27;;;;;;;14.27;11.80;;;12.00;99.90;12.90;97263.00;;;;5069718;28;20762;-89
2022/05/08 05:52:16;;;;;;;14.97;13.40;;;11.90;99.90;12.90;97265.00;;;;5071692;28;20207;-91
2022/05/08 05:55:08;;;;;;;16.17;12.93;;;11.90;99.90;12.80;97274.00;;;;5065512;28;20207;-92
2022/05/08 05:57:57;;;;;;;16.20;14.30;;;11.90;99.90;12.80;97274.00;;;;5058845;28;20201;-92
2022/05/08 06:00:46;;;;;;;18.27;15.40;;;11.80;99.90;12.90;97275.00;;;;5069613;28;20203;-91
2022/05/08 06:03:35;;;;;;;14.80;13.30;;;11.90;99.90;13.20;97280.00;;;;5072175;28;20206;-89
2022/05/08 06:06:23;;;;;;;16.87;13.50;;;12.00;99.90;13.30;97280.00;;;;5071653;28;20709;-89
2022/05/08 06:09:12;;;;;;;17.53;14.77;;;12.00;99.90;13.20;97279.00;;;;5066257;28;20235;-90
2022/05/08 06:12:03;;;;;;;15.87;13.83;;;12.10;99.90;13.20;97287.00;;;;5072031;28;20283;-89
2022/05/08 06:14:52;;;;;;;18.43;14.77;;;12.10;99.90;13.30;97296.00;;;;5065385;28;20212;-89
2022/05/08 06:17:41;;;;;;;17.97;14.80;;;12.20;99.90;13.30;97288.00;;;;5062044;28;20206;-89
2022/05/08 06:20:32;;;;;;;16.23;13.67;;;12.20;99.90;13.40;97294.00;;;;5069745;28;20726;-90
2022/05/08 06:23:20;;;;;;;13.23;11.93;;;12.20;99.90;13.40;97289.00;;;;5072114;28;20192;-90
2022/05/08 06:26:09;;;;;;;15.20;13.60;;;12.30;99.90;13.30;97299.00;;;;5070796;28;20231;-90
2022/05/08 06:29:00;;;;;;;14.87;13.30;;;12.30;99.90;13.30;97290.00;;;;5067141;28;20223;-87
2022/05/08 06:31:51;;;;;;;14.87;13.27;;;12.30;99.90;13.40;97293.00;;;;5065911;28;20207;-89
2022/05/08 06:34:40;;;;;;;15.53;13.83;;;12.30;99.90;13.50;97290.00;;;;5064111;28;20201;-88
2022/05/08 06:37:29;;;;;;;17.27;14.23;;;12.40;99.90;13.40;97290.00;;;;5062744;28;20214;-89
2022/05/08 06:40:18;;;;;;;15.03;13.47;;;12.40;99.90;13.40;97282.00;;;;5064332;28;20208;-89
2022/05/08 06:43:07;;;;;;;14.93;12.87;;;12.40;99.90;13.60;97295.00;;;;5071400;28;20215;-89
2022/05/08 06:45:58;;;;;;;13.67;12.27;;;12.50;99.90;13.50;97299.00;;;;5064353;28;20232;-89
2022/05/08 06:48:48;;;;;;;15.30;13.70;;;12.50;99.90;13.70;97296.00;;;;5059261;28;20221;-88
2022/05/08 06:51:37;;;;;;;14.07;12.60;;;12.60;99.90;13.80;97295.00;;;;5067408;28;20292;-89
2022/05/08 06:54:27;;;;;;;15.33;12.93;;;12.60;99.90;13.80;97296.00;;;;5061403;28;20684;-89
2022/05/08 06:57:16;;;;;;;13.60;12.20;;;12.70;99.90;14.00;97297.00;;;;5061993;28;20224;-89
2022/05/08 07:03:15;;;;;;;12.40;11.10;;;12.80;99.90;14.30;97288.00;;;;5065263;28;20203;-89
2022/05/08 07:06:04;;;;;;;13.37;11.57;;;12.90;99.90;14.40;97294.00;;;;5065318;28;20225;-89
2022/05/08 07:08:53;;;;;;;13.07;11.83;;;13.00;99.90;14.30;97293.00;;;;5068703;28;20220;-89
2022/05/08 07:11:45;;;;;;;11.97;10.37;;;13.00;99.90;14.10;97304.00;;;;5066579;28;20213;-89
2022/05/08 07:14:34;;;;;;;12.33;10.60;;;13.10;99.90;14.10;97301.00;;;;5071140;28;20568;-90
2022/05/08 07:17:24;;;;;;;15.53;11.73;;;13.00;99.90;14.10;97309.00;;;;5062435;28;20207;-88
2022/05/08 07:20:14;;;;;;;14.13;12.63;;;13.00;99.90;14.10;97305.00;;;;5067836;28;20211;-88
2022/05/08 07:23:03;;;;;;;13.57;12.03;;;13.10;99.90;14.20;97307.00;;;;5065838;28;20211;-88
2022/05/08 07:25:52;;;;;;;12.47;11.20;;;13.10;99.90;14.10;97308.00;;;;5064880;28;20212;-88
2022/05/08 07:28:41;;;;;;;13.90;11.73;;;13.10;99.90;14.20;97301.00;;;;5068195;28;20227;-88
2022/05/08 07:31:29;;;;;;;12.93;11.63;;;13.10;99.90;14.20;97303.00;;;;5060739;28;20614;-88
2022/05/08 07:37:26;;;;;;;14.83;12.73;;;13.20;99.90;14.40;97307.00;;;;5056780;28;20196;-88
2022/05/08 07:40:15;;;;;;;15.43;11.80;;;13.20;99.90;14.40;97304.00;;;;5064056;28;20200;-87
2022/05/08 07:43:04;;;;;;;14.77;11.67;;;13.30;99.90;14.60;97308.00;;;;5070733;28;20196;-88
2022/05/08 07:45:52;;;;;;;14.27;12.57;;;13.30;99.90;14.80;97312.00;;;;5068906;28;20234;-89
2022/05/08 07:48:41;;;;;;;13.40;12.03;;;13.50;99.90;15.20;97313.00;;;;5064289;28;20212;-88
2022/05/08 07:51:31;;;;;;;13.97;12.30;;;13.60;99.90;15.50;97316.00;;;;5065874;28;20215;-89
2022/05/08 07:54:22;;;;;;;17.57;12.93;;;13.80;99.90;15.70;97313.00;;;;5061358;28;20292;-89
2022/05/08 07:57:10;;;;;;;13.83;11.83;;;14.00;99.90;16.10;97320.00;;;;5057201;28;20231;-90
2022/05/08 07:59:59;;;;;;;13.23;11.83;;;14.30;99.90;16.00;97314.00;;;;5068481;28;20200;-89
2022/05/08 08:02:48;;;;;;;14.63;12.50;;;14.50;99.90;16.50;97322.00;;;;5062667;28;20207;-89
2022/05/08 08:05:37;;;;;;;13.50;12.10;;;14.70;99.90;16.80;97325.00;;;;5061641;28;20227;-89
2022/05/08 08:08:36;;;;;;;13.00;11.57;;;14.90;99.90;16.50;97327.00;;;;5063582;28;20212;-89
2022/05/08 08:11:26;;;;;;;11.80;10.67;;;15.00;99.90;16.50;97320.00;;;;5060238;28;20227;-89
2022/05/08 08:14:16;;;;;;;14.57;10.77;;;15.20;99.90;16.80;97342.00;;;;5057125;28;20722;-89
2022/05/08 08:17:21;;;;;;;11.57;10.37;;;15.30;99.90;16.30;97342.00;;;;5067973;28;20249;-90
2022/05/08 08:20:12;;;;;;;11.43;10.23;;;15.30;99.90;16.20;97340.00;;;;5059747;28;20212;-89
2022/05/08 08:23:01;;;;;;;12.30;11.00;;;15.30;99.90;16.50;97336.00;;;;5067935;28;20273;-91
2022/05/08 08:25:51;;;;;;;11.53;9.53;;;15.30;99.90;16.60;97337.00;;;;5080462;22;20228;-69
2022/05/08 08:28:42;;;;;;;11.40;10.07;;;15.40;99.90;16.40;97334.00;;;;5034820;28;20229;-68
2022/05/08 08:31:30;;;;;;;9.87;8.93;;;15.40;99.90;17.00;97339.00;;;;5035094;28;20217;-68
2022/05/08 08:34:19;;;;;;;11.47;10.00;;;15.60;99.90;16.80;97338.00;;;;5041603;28;20228;-68
2022/05/08 08:37:08;;;;;;;11.60;10.20;;;15.70;99.90;16.80;97342.00;;;;5030580;28;20230;-68
2022/05/08 08:39:57;;;;;;;14.43;10.07;;;15.70;99.90;17.50;97346.00;;;;5037576;28;20211;-68
2022/05/08 08:42:46;;;;;;;11.00;9.90;;;15.90;99.90;17.40;97344.00;;;;5036474;28;20236;-67
2022/05/08 08:48:50;;;;;;;9.43;8.53;;;16.20;99.90;18.00;97351.00;;;;5038962;28;20203;-68
2022/05/08 08:51:39;;;;;;;10.10;8.60;;;16.40;99.90;18.40;97347.00;;;;5041605;28;20216;-68
2022/05/08 08:54:28;;;;;;;10.77;8.17;;;16.60;99.90;18.50;97342.00;;;;5085271;22;20242;-68
2022/05/08 08:57:17;;;;;;;10.33;9.33;;;16.80;99.90;18.40;97342.00;;;;5084703;28;20218;-68
2022/05/08 09:00:08;;;;;;;9.07;8.17;;;17.00;99.90;18.60;97344.00;;;;5086206;28;20562;-69
2022/05/08 09:02:59;;;;;;;9.30;8.10;;;17.10;99.90;18.90;97347.00;;;;5087448;28;20200;-68
2022/05/08 09:05:47;;;;;;;10.77;8.13;;;17.30;99.90;18.40;97344.00;;;;5085938;28;20214;-68
2022/05/08 09:08:36;;;;;;;9.10;8.17;;;17.30;99.90;18.20;97349.00;;;;5083586;28;20677;-69
2022/05/08 09:11:35;;;;;;;9.23;8.33;;;17.30;99.90;18.20;97350.00;;;;5091126;28;20206;-68
2022/05/08 09:14:32;;;;;;;10.00;9.00;;;17.20;99.90;18.30;97356.00;;;;5092466;28;20219;-68
2022/05/08 09:17:22;;;;;;;9.80;8.90;;;17.20;99.90;18.70;97356.00;;;;5091263;28;20207;-68
2022/05/08 09:20:27;;;;;;;9.07;8.17;;;17.20;99.90;18.90;97365.00;;;;5091984;28;20211;-68
2022/05/08 09:23:18;;;;;;;9.87;8.77;;;17.30;99.90;18.70;97356.00;;;;5089195;28;20223;-68
2022/05/08 09:26:08;;;;;;;9.37;8.47;;;17.30;99.90;18.70;97365.00;;;;5090549;28;20199;-68
2022/05/08 09:28:59;;;;;;;11.27;8.10;;;17.30;99.90;18.80;97362.00;;;;5090679;28;20216;-68
2022/05/08 09:31:48;;;;;;;9.63;8.63;;;17.30;99.90;18.90;97361.00;;;;5090753;28;20192;-68
2022/05/08 09:34:57;;;;;;;9.47;8.47;;;17.40;99.90;19.10;97356.00;;;;5092077;28;20226;-68
2022/05/08 09:37:56;;;;;;;9.53;8.50;;;17.40;99.90;18.90;97357.00;;;;5081026;28;20192;-68
2022/05/08 09:40:46;;;;;;;8.90;8.10;;;17.50;99.90;18.80;97350.00;;;;5091046;28;20199;-68
2022/05/08 09:43:35;;;;;;;9.60;8.57;;;17.60;99.90;19.00;97350.00;;;;5088451;28;20216;-68
2022/05/08 09:46:24;;;;;;;9.50;8.10;;;17.60;99.90;19.50;97350.00;;;;5083806;28;20207;-68
2022/05/08 09:49:14;;;;;;;8.30;7.60;;;17.70;99.90;20.20;97346.00;;;;5081582;28;20199;-68
2022/05/08 09:52:04;;;;;;;9.73;8.83;;;18.00;99.90;20.80;97335.00;;;;5089267;28;20664;-68
2022/05/08 09:54:55;;;;;;;6.63;6.03;;;18.40;99.90;21.00;97338.00;;;;5084165;28;20227;-68
2022/05/08 09:57:44;;;;;;;8.60;7.80;;;18.80;99.90;21.50;97337.00;;;;5078516;28;20421;-68
2022/05/08 10:00:34;;;;;;;7.53;6.93;;;19.30;99.90;21.90;97333.00;;;;5088847;28;20207;-68
2022/05/08 10:03:23;;;;;;;7.20;6.50;;;19.70;99.90;21.40;97347.00;;;;5090223;28;20232;-68
2022/05/08 10:06:13;;;;;;;7.07;6.23;;;19.70;99.90;21.40;97354.00;;;;5088247;28;20200;-68
2022/05/08 10:15:18;;;;;;;6.40;5.47;;;19.90;99.90;22.50;97345.00;;;;5082260;28;20207;-67
2022/05/08 10:18:28;;;;;;;6.47;5.87;;;20.20;99.90;22.20;97351.00;;;;5091853;28;20211;-68
2022/05/08 10:21:16;;;;;;;7.23;5.77;;;20.30;99.90;22.00;97354.00;;;;5086796;28;20204;-68
2022/05/08 10:24:31;;;;;;;7.38;6.63;;;20.30;99.90;21.70;97352.00;;;;5084373;28;20393;-68
2022/05/08 10:27:23;;;;;;;6.83;6.23;;;20.20;99.90;21.70;97339.00;;;;5082212;28;20390;-68
2022/05/08 10:30:31;;;;;;;7.53;6.70;;;20.20;99.90;22.70;97302.00;;;;5083680;28;20406;-68
2022/05/08 10:33:19;;;;;;;7.70;7.00;;;20.50;99.90;23.60;97307.00;;;;5078574;28;20398;-68
2022/05/08 10:36:09;;;;;;;7.82;6.55;;;20.90;99.90;23.90;97297.00;;;;5080626;28;20824;-68
2022/05/08 10:39:39;;;;;;;7.90;6.30;;;21.40;99.90;23.70;97308.00;;;;5072816;28;20486;-68
2022/05/08 10:42:44;;;;;;;7.03;6.35;;;21.80;99.90;24.30;97302.00;;;;5082877;28;20781;-69
2022/05/08 10:45:44;;;;;;;6.10;5.50;;;22.10;99.90;24.40;97330.00;;;;5086277;28;20386;-68
2022/05/08 10:48:32;;;;;;;7.85;6.43;;;22.30;99.90;23.20;97341.00;;;;5088404;28;20386;-68
2022/05/08 10:51:22;;;;;;;6.43;5.93;;;22.10;99.90;22.50;97343.00;;;;5073332;28;20565;-68
2022/05/08 10:54:11;;;;;;;8.85;6.07;;;21.80;99.90;22.70;97339.00;;;;5085421;28;20390;-68
2022/05/08 10:57:02;;;;;;;6.13;5.63;;;21.50;99.90;23.00;97343.00;;;;5089579;28;20382;-69
2022/05/08 10:59:50;;;;;;;5.93;5.43;;;21.40;99.90;22.10;97340.00;;;;5089018;28;20393;-68
2022/05/08 11:02:40;;;;;;;5.97;5.47;;;21.20;99.90;22.00;97330.00;;;;5080946;28;20399;-68
2022/05/08 11:05:31;;;;;;;7.47;5.78;;;21.00;99.90;22.20;97314.00;;;;5087321;28;20394;-68
2022/05/08 11:08:29;;;;;;;7.28;6.10;;;20.80;99.90;22.00;97333.00;;;;5083301;28;20392;-68
2022/05/08 11:11:20;;;;;;;7.10;5.80;;;20.70;99.90;21.90;97346.00;;;;5086554;28;20784;-68
2022/05/08 11:14:22;;;;;;;6.95;6.28;;;20.60;99.90;21.50;97352.00;;;;5080925;28;20905;-69
2022/05/08 11:17:15;;;;;;;6.40;5.90;;;20.40;99.90;21.00;97352.00;;;;5084353;28;20403;-69
2022/05/08 11:20:05;;;;;;;7.13;6.40;;;20.10;99.90;21.00;97341.00;;;;5087009;28;20472;-69
2022/05/08 11:22:58;;;;;;;7.68;6.97;;;19.90;99.90;20.70;97334.00;;;;5083209;28;20402;-69
2022/05/08 11:25:48;;;;;;;6.93;6.32;;;19.70;99.90;20.50;97328.00;;;;5082534;28;20389;-69
2022/05/08 11:28:47;;;;;;;7.72;6.93;;;19.50;99.90;20.60;97328.00;;;;5084673;28;20386;-69
2022/05/08 11:36:03;;;;;;;9.88;8.95;;;19.40;99.90;20.70;97327.00;;;;5080280;28;20403;-69
2022/05/08 11:38:13;;;;;;;7.95;7.28;;;19.20;99.90;20.70;97332.00;;;;5086041;28;20402;-69
2022/05/08 11:41:02;;;;;;;7.70;6.75;;;19.20;99.90;20.80;97332.00;;;;5086632;28;21055;-69
2022/05/08 11:43:52;;;;;;;8.02;6.97;;;19.20;99.90;21.00;97313.00;;;;5086411;28;20401;-69
2022/05/08 11:46:45;;;;;;;7.03;6.32;;;19.40;99.90;21.80;97336.00;;;;5078409;28;20771;-69
2022/05/08 11:49:42;;;;;;;6.75;6.07;;;19.60;99.90;21.40;97330.00;;;;5080358;28;20426;-69
2022/05/08 11:52:31;;;;;;;7.75;6.40;;;19.80;99.90;20.90;97313.00;;;;5078324;28;20389;-69
2022/05/08 11:55:20;;;;;;;6.43;5.82;;;19.70;99.90;21.20;97321.00;;;;5080343;28;20404;-70
2022/05/08 11:58:09;;;;;;;6.40;5.80;;;19.80;99.90;21.60;97295.00;;;;5077553;28;21290;-68
2022/05/08 12:00:58;;;;;;;6.20;5.60;;;19.90;99.90;21.80;97287.00;;;;5083172;28;20400;-69
2022/05/08 12:03:48;;;;;;;7.23;6.53;;;20.20;99.90;23.00;97280.00;;;;5080456;28;20488;-68
2022/05/08 12:06:37;;;;;;;6.50;5.90;;;20.50;99.90;23.80;97322.00;;;;5082652;28;20413;-69
2022/05/08 12:09:26;;;;;;;6.20;5.70;;;21.00;99.90;23.20;97321.00;;;;5079659;28;20936;-69
2022/05/08 12:12:26;;;;;;;6.10;5.60;;;21.20;99.90;22.80;97320.00;;;;5084736;28;20406;-69
2022/05/08 12:15:20;;;;;;;7.00;6.38;;;21.20;99.90;22.30;97329.00;;;;5083538;28;20411;-68
2022/05/08 12:18:09;;;;;;;8.05;5.65;;;21.10;99.90;22.00;97334.00;;;;5087207;28;20398;-68
2022/05/08 12:21:01;;;;;;;6.80;6.10;;;20.90;99.90;21.60;97321.00;;;;5082982;28;20766;-68
2022/05/08 12:23:50;;;;;;;6.65;6.05;;;20.70;99.90;21.40;97342.00;;;;5081065;28;20406;-68
2022/05/08 12:26:39;;;;;;;7.05;6.35;;;20.40;99.90;20.80;97337.00;;;;5086172;28;20390;-68
2022/05/08 12:29:28;;;;;;;8.20;6.83;;;20.00;99.90;20.30;97332.00;;;;5084574;28;20366;-68
2022/05/08 12:32:17;;;;;;;6.88;6.28;;;19.70;99.90;19.50;97329.00;;;;5083609;28;20919;-68
2022/05/08 12:35:07;;;;;;;6.65;6.03;;;19.30;99.90;18.90;97322.00;;;;5078151;28;20760;-68
2022/05/08 12:37:58;;;;;;;9.70;7.20;;;18.90;99.90;19.50;97320.00;;;;5080880;28;20401;-68
2022/05/08 12:40:47;;;;;;;8.30;7.40;;;18.70;99.90;19.90;97294.00;;;;5081737;28;20398;-69
2022/05/08 12:43:36;;;;;;;7.70;6.95;;;18.70;99.90;21.30;97279.00;;;;5085852;28;20382;-69
2022/05/08 12:46:24;;;;;;;6.70;5.97;;;19.00;99.90;20.90;97267.00;;;;5081892;28;20421;-69
2022/05/08 12:49:14;;;;;;;8.20;6.93;;;19.40;99.90;20.10;97314.00;;;;5079578;28;20386;-68
2022/05/08 12:52:04;;;;;;;9.57;7.25;;;19.40;99.90;19.30;97316.00;;;;5086878;28;20402;-69
2022/05/08 12:54:54;;;;;;;9.13;7.93;;;19.00;99.90;19.40;97316.00;;;;5082646;28;20417;-69
2022/05/08 13:00:51;;;;;;;8.57;7.10;;;18.50;99.90;18.30;97305.00;;;;5080854;28;20397;-69